Time;durP1;ratioP1;P1;durP2;ratioP2;P2;SDS_P1;SDS_P2;PMS_P1;PMS_P2;Temp;Humidity;BMP_temperature;BMP_pressure;BME280_temperature;BME280_humidity;BME280_pressure;Samples;Min_cycle;Max_cycle;Signal;HPM_P1;HPM_P2
2022/01/20 00:02:27;;;;;;;13.68;11.20;;;4.10;99.90;;;;;;5072490;28;20260;-84
2022/01/20 00:05:09;;;;;;;12.45;11.15;;;4.10;99.90;;;;;;5073021;28;20231;-84
2022/01/20 00:07:48;;;;;;;10.52;9.52;;;4.10;99.90;;;;;;5073215;28;20213;-84
2022/01/20 00:27:05;;;;;;;11.18;8.82;;;4.10;99.90;;;;;;5072095;28;20259;-84
2022/01/20 00:29:53;;;;;;;11.73;8.52;;;4.10;99.90;;;;;;5072149;28;20258;-84
2022/01/20 00:32:26;;;;;;;11.10;7.68;;;4.10;99.90;;;;;;5072629;28;20228;-84
2022/01/20 00:37:49;;;;;;;11.50;8.55;;;4.20;99.90;;;;;;5058979;28;20205;-83
2022/01/20 00:40:21;;;;;;;8.48;7.60;;;4.20;99.90;;;;;;5071928;28;20277;-84
2022/01/20 00:42:51;;;;;;;12.13;8.60;;;4.30;99.90;;;;;;5072664;28;20280;-83
2022/01/20 00:45:20;;;;;;;10.60;8.35;;;4.30;99.90;;;;;;5072539;28;20239;-84
2022/01/20 00:47:48;;;;;;;10.35;7.78;;;4.20;99.90;;;;;;5072859;28;20240;-83
2022/01/20 00:50:16;;;;;;;10.43;8.30;;;4.20;99.90;;;;;;5071976;28;20292;-84
2022/01/20 00:52:44;;;;;;;9.52;7.88;;;4.20;99.90;;;;;;5071980;28;20225;-84
2022/01/20 00:55:14;;;;;;;9.70;8.45;;;4.20;99.90;;;;;;5072379;28;20312;-84
2022/01/20 00:57:42;;;;;;;8.00;6.65;;;4.10;99.90;;;;;;5072341;28;20213;-83
2022/01/20 01:00:15;;;;;;;10.30;6.35;;;4.10;99.90;;;;;;5071893;28;20209;-83
2022/01/20 01:02:43;;;;;;;8.88;7.45;;;4.10;99.90;;;;;;5072740;28;20325;-83
2022/01/20 01:05:12;;;;;;;7.30;6.60;;;4.20;99.90;;;;;;5072182;28;20229;-83
2022/01/20 01:07:49;;;;;;;10.73;7.95;;;4.20;99.90;;;;;;5072237;28;20320;-83
2022/01/20 01:10:19;;;;;;;10.05;8.27;;;4.20;99.90;;;;;;5071575;28;20284;-83
2022/01/20 01:12:52;;;;;;;11.30;7.25;;;4.30;99.90;;;;;;5071628;28;20252;-84
2022/01/20 01:15:27;;;;;;;8.82;7.10;;;4.30;99.90;;;;;;5072443;28;20232;-84
2022/01/20 01:21:10;;;;;;;7.60;6.80;;;4.30;99.90;;;;;;5071294;28;20225;-84
2022/01/20 01:23:40;;;;;;;8.80;6.95;;;4.30;99.90;;;;;;5072099;28;20215;-83
2022/01/20 01:26:10;;;;;;;8.50;7.38;;;4.30;99.90;;;;;;5072139;28;20303;-83
2022/01/20 01:28:40;;;;;;;8.07;6.63;;;4.30;99.90;;;;;;5071830;28;20207;-84
2022/01/20 01:34:05;;;;;;;5.88;5.30;;;4.40;99.90;;;;;;5056390;28;20228;-83
2022/01/20 01:36:48;;;;;;;19.92;7.32;;;4.40;99.90;;;;;;5070720;28;20296;-83
2022/01/20 01:39:17;;;;;;;9.02;7.10;;;4.30;99.90;;;;;;5075124;28;20232;-83
2022/01/20 01:41:46;;;;;;;9.88;6.70;;;4.40;99.90;;;;;;5075419;28;20207;-84
2022/01/20 01:44:21;;;;;;;7.90;6.20;;;4.30;99.90;;;;;;5075404;28;20204;-83
2022/01/20 01:46:52;;;;;;;8.05;6.97;;;4.40;99.90;;;;;;5075569;28;20238;-84
2022/01/20 01:49:21;;;;;;;7.03;5.55;;;4.40;99.90;;;;;;5075071;28;20213;-83
2022/01/20 01:51:50;;;;;;;8.48;5.57;;;4.30;99.90;;;;;;5075075;28;20307;-83
2022/01/20 01:54:18;;;;;;;10.05;6.03;;;4.40;99.90;;;;;;5075733;28;20308;-84
2022/01/20 01:56:49;;;;;;;6.07;5.20;;;4.40;99.90;;;;;;5075476;28;20292;-84
2022/01/20 01:59:18;;;;;;;7.57;6.18;;;4.30;99.90;;;;;;5074745;28;20219;-84
2022/01/20 02:01:46;;;;;;;7.05;6.30;;;4.30;99.90;;;;;;5074971;28;20201;-84
2022/01/20 02:04:19;;;;;;;9.38;6.13;;;4.30;99.90;;;;;;5075168;28;20284;-84
2022/01/20 02:07:12;;;;;;;6.38;5.72;;;4.30;99.90;;;;;;5075115;28;20293;-84
2022/01/20 02:17:50;;;;;;;6.20;5.25;;;4.30;99.90;;;;;;5074796;28;20292;-84
2022/01/20 02:18:25;;;;;;;8.80;6.00;;;4.40;99.90;;;;;;5074941;28;20243;-83
2022/01/20 02:20:55;;;;;;;5.75;5.15;;;4.40;99.90;;;;;;5074635;28;20193;-84
2022/01/20 02:23:25;;;;;;;7.60;6.35;;;4.40;99.90;;;;;;5075168;28;20204;-83
2022/01/20 02:25:54;;;;;;;6.63;5.97;;;4.50;99.90;;;;;;5074952;28;20228;-84
2022/01/20 02:28:22;;;;;;;6.50;5.68;;;4.60;99.90;;;;;;5074737;28;20205;-83
2022/01/20 02:30:51;;;;;;;5.93;5.15;;;4.60;99.90;;;;;;5074136;28;20265;-83
2022/01/20 02:33:22;;;;;;;5.97;5.00;;;4.60;99.90;;;;;;5074628;28;20252;-84
2022/01/20 02:35:53;;;;;;;5.07;4.47;;;4.60;99.90;;;;;;5074762;28;20228;-83
2022/01/20 02:38:29;;;;;;;6.40;5.13;;;4.60;99.90;;;;;;5074774;28;20208;-84
2022/01/20 02:46:30;;;;;;;4.50;4.07;;;4.80;99.90;;;;;;5074499;28;20216;-83
2022/01/20 02:48:59;;;;;;;6.28;4.90;;;4.80;99.90;;;;;;5073867;28;20290;-84
2022/01/20 02:51:27;;;;;;;5.00;4.38;;;4.70;99.90;;;;;;5074479;28;20288;-84
2022/01/20 02:53:57;;;;;;;6.88;5.15;;;4.70;99.90;;;;;;5074086;28;20265;-83
2022/01/20 02:56:26;;;;;;;4.93;4.50;;;4.70;99.90;;;;;;5074516;28;20296;-84
2022/01/20 02:58:54;;;;;;;7.90;5.10;;;4.70;99.90;;;;;;5073582;28;20288;-83
2022/01/20 03:01:22;;;;;;;6.88;3.80;;;4.80;99.90;;;;;;5074561;28;20201;-83
2022/01/20 03:03:51;;;;;;;5.00;4.15;;;4.80;99.90;;;;;;5074740;28;20205;-83
2022/01/20 03:06:19;;;;;;;3.85;3.55;;;4.80;99.90;;;;;;5073468;28;20221;-84
2022/01/20 03:08:47;;;;;;;4.82;4.05;;;4.80;99.90;;;;;;5073578;28;20219;-83
2022/01/20 03:11:17;;;;;;;3.72;3.42;;;4.80;99.90;;;;;;5073919;28;20209;-84
2022/01/20 03:13:45;;;;;;;3.80;3.42;;;4.80;99.90;;;;;;5073467;28;20324;-83
2022/01/20 03:16:14;;;;;;;5.03;4.00;;;4.80;99.90;;;;;;5074005;28;20319;-83
2022/01/20 03:18:42;;;;;;;5.22;4.03;;;4.90;99.90;;;;;;5073565;28;20251;-84
2022/01/20 03:21:11;;;;;;;4.72;3.95;;;4.90;99.90;;;;;;5073594;28;20205;-83
2022/01/20 03:23:39;;;;;;;3.85;3.25;;;5.00;99.90;;;;;;5073660;28;20197;-84
2022/01/20 03:26:07;;;;;;;4.45;3.75;;;5.00;99.90;;;;;;5073420;28;20220;-84
2022/01/20 03:28:37;;;;;;;4.22;3.50;;;5.00;99.90;;;;;;5074058;28;20233;-83
2022/01/20 03:31:06;;;;;;;6.20;3.88;;;5.00;99.90;;;;;;5073230;28;20201;-83
2022/01/20 03:33:34;;;;;;;4.32;3.83;;;5.00;99.90;;;;;;5073140;28;20221;-83
2022/01/20 03:36:02;;;;;;;5.07;4.47;;;5.10;99.90;;;;;;5073130;28;20221;-83
2022/01/20 03:38:31;;;;;;;3.40;3.20;;;5.10;99.90;;;;;;5073182;28;20233;-84
2022/01/20 03:40:59;;;;;;;5.53;3.45;;;5.00;99.90;;;;;;5072970;28;20211;-83
2022/01/20 03:43:27;;;;;;;4.60;4.05;;;5.00;99.90;;;;;;5073483;28;20197;-84
2022/01/20 03:45:59;;;;;;;3.58;3.00;;;5.10;99.90;;;;;;5073124;28;20303;-83
2022/01/20 03:48:29;;;;;;;3.47;3.22;;;5.00;99.90;;;;;;5073341;28;20209;-83
2022/01/20 03:51:00;;;;;;;3.70;2.97;;;5.10;99.90;;;;;;5072403;28;20288;-84
2022/01/20 03:53:29;;;;;;;5.85;4.13;;;5.10;99.90;;;;;;5072888;28;20296;-83
2022/01/20 03:55:58;;;;;;;4.00;3.63;;;5.10;99.90;;;;;;5072928;28;20304;-83
2022/01/20 03:58:27;;;;;;;4.60;3.15;;;5.10;99.90;;;;;;5072568;28;20244;-83
2022/01/20 04:00:57;;;;;;;4.38;3.83;;;5.10;99.90;;;;;;5071745;28;20213;-83
2022/01/20 04:03:26;;;;;;;4.22;3.05;;;5.10;99.90;;;;;;5072825;28;20212;-83
2022/01/20 04:06:03;;;;;;;4.22;2.60;;;5.20;99.90;;;;;;5072595;28;20221;-83
2022/01/20 04:08:33;;;;;;;2.92;2.63;;;5.20;99.90;;;;;;5072655;28;20288;-83
2022/01/20 04:11:02;;;;;;;5.97;5.15;;;5.10;99.90;;;;;;5072468;28;20284;-83
2022/01/20 04:13:32;;;;;;;3.25;2.97;;;5.10;99.90;;;;;;5072521;28;20225;-83
2022/01/20 04:16:11;;;;;;;5.20;3.80;;;5.20;99.90;;;;;;5072885;28;20225;-83
2022/01/20 04:18:41;;;;;;;3.97;3.63;;;5.10;99.90;;;;;;5072125;28;20209;-84
2022/01/20 04:21:09;;;;;;;6.07;3.70;;;5.10;99.90;;;;;;5072186;28;20215;-83
2022/01/20 04:23:37;;;;;;;5.18;3.65;;;5.10;99.90;;;;;;5072978;28;20260;-83
2022/01/20 04:26:05;;;;;;;4.40;3.42;;;5.10;99.90;;;;;;5072712;28;20312;-83
2022/01/20 04:28:34;;;;;;;3.65;3.33;;;5.10;99.90;;;;;;5072633;28;20292;-83
2022/01/20 04:31:03;;;;;;;4.15;3.75;;;5.10;99.90;;;;;;5072142;28;20201;-84
2022/01/20 04:33:32;;;;;;;5.22;3.40;;;5.10;99.90;;;;;;5072580;28;20217;-83
2022/01/20 04:36:00;;;;;;;4.82;3.53;;;5.10;99.90;;;;;;5072425;28;20235;-83
2022/01/20 04:38:28;;;;;;;3.95;3.65;;;5.10;99.90;;;;;;5072693;28;20201;-83
2022/01/20 04:40:56;;;;;;;3.83;3.45;;;5.10;99.90;;;;;;5072180;28;20215;-83
2022/01/20 04:43:26;;;;;;;6.35;3.63;;;5.10;99.90;;;;;;5072441;28;20209;-83
2022/01/20 04:46:02;;;;;;;3.53;3.22;;;5.10;99.90;;;;;;5072258;28;20232;-83
2022/01/20 04:48:45;;;;;;;3.03;2.83;;;5.10;99.90;;;;;;5072594;28;20258;-83
2022/01/20 04:57:07;;;;;;;4.05;3.75;;;5.10;99.90;;;;;;5072058;28;20205;-83
2022/01/20 04:59:35;;;;;;;3.65;3.35;;;5.10;99.90;;;;;;5071672;28;20217;-83
2022/01/20 05:02:04;;;;;;;5.20;3.90;;;5.00;99.90;;;;;;5072440;28;20205;-83
2022/01/20 05:04:34;;;;;;;3.92;3.40;;;5.00;99.90;;;;;;5072096;28;20248;-83
2022/01/20 05:07:05;;;;;;;3.55;3.22;;;5.00;99.90;;;;;;5072078;28;20284;-83
2022/01/20 05:09:34;;;;;;;4.53;3.88;;;5.00;99.90;;;;;;5071958;28;20210;-83
2022/01/20 05:12:06;;;;;;;3.85;2.97;;;5.00;99.90;;;;;;5072353;28;20211;-83
2022/01/20 05:14:34;;;;;;;4.88;3.70;;;5.00;99.90;;;;;;5075839;28;20284;-83
2022/01/20 05:17:04;;;;;;;3.65;3.35;;;5.00;99.90;;;;;;5076164;28;20205;-84
2022/01/20 05:19:34;;;;;;;3.35;3.05;;;5.00;99.90;;;;;;5075368;28;20205;-83
2022/01/20 05:22:03;;;;;;;3.75;3.30;;;5.00;99.90;;;;;;5075713;28;20273;-84
2022/01/20 05:24:31;;;;;;;4.43;4.03;;;5.00;99.90;;;;;;5075810;28;20225;-83
2022/01/20 05:27:00;;;;;;;3.22;3.03;;;5.00;99.90;;;;;;5075529;28;20229;-83
2022/01/20 05:29:28;;;;;;;2.80;2.55;;;5.00;99.90;;;;;;5075562;28;20205;-83
2022/01/20 05:31:57;;;;;;;6.43;3.72;;;5.00;99.90;;;;;;5075697;28;20224;-83
2022/01/20 05:34:25;;;;;;;3.08;2.63;;;5.00;99.90;;;;;;5075237;28;20254;-83
2022/01/20 05:36:55;;;;;;;4.25;3.15;;;5.00;99.90;;;;;;5075439;28;20272;-83
2022/01/20 05:39:24;;;;;;;2.88;2.67;;;4.90;99.90;;;;;;5075285;28;20209;-83
2022/01/20 05:41:53;;;;;;;2.53;2.33;;;4.90;99.90;;;;;;5075804;28;20209;-83
2022/01/20 05:44:21;;;;;;;3.47;3.22;;;4.90;99.90;;;;;;5075553;28;20225;-83
2022/01/20 05:46:52;;;;;;;3.95;3.55;;;4.90;99.90;;;;;;5075689;28;20209;-83
2022/01/20 05:49:21;;;;;;;3.95;3.65;;;4.90;99.90;;;;;;5075292;28;20213;-83
2022/01/20 05:51:52;;;;;;;2.85;2.65;;;4.80;99.90;;;;;;5075506;28;20251;-83
2022/01/20 05:54:23;;;;;;;3.13;2.75;;;4.80;99.90;;;;;;5075331;28;20251;-83
2022/01/20 05:56:53;;;;;;;2.97;2.78;;;4.80;99.90;;;;;;5075605;28;20272;-83
2022/01/20 05:59:21;;;;;;;3.75;2.83;;;4.80;99.90;;;;;;5074883;28;20228;-83
2022/01/20 06:01:55;;;;;;;3.30;3.00;;;4.80;99.90;;;;;;5075106;28;20292;-83
2022/01/20 06:04:23;;;;;;;4.07;2.72;;;4.80;99.90;;;;;;5075163;28;20220;-83
2022/01/20 06:06:52;;;;;;;3.20;2.45;;;4.80;99.90;;;;;;5075303;28;20201;-83
2022/01/20 06:09:22;;;;;;;4.38;2.97;;;4.80;99.90;;;;;;5074760;28;20284;-83
2022/01/20 06:11:50;;;;;;;2.67;2.47;;;4.70;99.90;;;;;;5074974;28;20300;-84
2022/01/20 06:14:18;;;;;;;3.97;3.20;;;4.70;99.90;;;;;;5075029;28;20256;-83
2022/01/20 06:16:47;;;;;;;3.20;2.78;;;4.70;99.90;;;;;;5075091;28;20288;-84
2022/01/20 06:19:15;;;;;;;4.75;3.05;;;4.70;99.90;;;;;;5074409;28;20209;-83
2022/01/20 06:21:45;;;;;;;3.50;2.67;;;4.70;99.90;;;;;;5074637;28;20227;-83
2022/01/20 06:24:14;;;;;;;2.17;2.08;;;4.60;99.90;;;;;;5073663;28;20269;-83
2022/01/20 06:26:44;;;;;;;2.50;2.30;;;4.60;99.90;;;;;;5074803;28;20201;-83
2022/01/20 06:29:14;;;;;;;2.58;2.38;;;4.60;99.90;;;;;;5074268;28;20264;-84
2022/01/20 06:31:42;;;;;;;2.90;2.70;;;4.60;99.90;;;;;;5074436;28;20203;-84
2022/01/20 06:34:10;;;;;;;2.70;2.50;;;4.60;99.90;;;;;;5074473;28;20383;-83
2022/01/20 06:36:39;;;;;;;2.60;2.40;;;4.60;99.90;;;;;;5074447;28;20208;-83
2022/01/20 06:39:07;;;;;;;2.95;2.72;;;4.60;99.90;;;;;;5073971;28;20208;-83
2022/01/20 06:41:37;;;;;;;3.00;2.42;;;4.60;99.90;;;;;;5074423;28;20207;-83
2022/01/20 06:44:08;;;;;;;3.65;2.90;;;4.60;99.90;;;;;;5074592;28;20209;-83
2022/01/20 06:46:38;;;;;;;3.25;2.95;;;4.50;99.90;;;;;;5074318;28;20280;-84
2022/01/20 06:49:06;;;;;;;3.58;2.50;;;4.50;99.90;;;;;;5073903;28;20288;-83
2022/01/20 06:51:34;;;;;;;2.42;2.22;;;4.50;99.90;;;;;;5074335;28;20299;-83
2022/01/20 06:54:03;;;;;;;2.65;2.45;;;4.50;99.90;;;;;;5073899;28;20288;-83
2022/01/20 06:56:32;;;;;;;2.30;2.10;;;4.50;99.90;;;;;;5074301;28;20297;-83
2022/01/20 06:59:10;;;;;;;2.97;2.72;;;4.50;99.90;;;;;;5073622;28;20204;-83
2022/01/20 07:01:39;;;;;;;5.68;3.15;;;4.50;99.90;;;;;;5073719;28;20223;-83
2022/01/20 07:04:08;;;;;;;2.92;2.72;;;4.40;99.90;;;;;;5073699;28;20201;-83
2022/01/20 07:06:37;;;;;;;3.30;3.00;;;4.50;99.90;;;;;;5073548;28;20223;-83
2022/01/20 07:09:07;;;;;;;2.88;2.50;;;4.40;99.90;;;;;;5073376;28;20209;-83
2022/01/20 07:11:36;;;;;;;2.25;2.05;;;4.40;99.90;;;;;;5073634;28;20251;-83
2022/01/20 07:14:05;;;;;;;2.22;2.03;;;4.40;99.90;;;;;;5073744;28;20205;-83
2022/01/20 07:16:35;;;;;;;4.72;3.08;;;4.40;99.90;;;;;;5073864;28;20200;-83
2022/01/20 07:19:04;;;;;;;2.95;2.63;;;4.40;99.90;;;;;;5073248;28;20284;-83
2022/01/20 07:21:32;;;;;;;3.45;3.15;;;4.40;99.90;;;;;;5073309;28;20220;-83
2022/01/20 07:24:01;;;;;;;2.38;2.10;;;4.40;99.90;;;;;;5073487;28;20300;-83
2022/01/20 07:26:29;;;;;;;4.95;2.53;;;4.30;99.90;;;;;;5073621;28;20201;-83
2022/01/20 07:28:57;;;;;;;3.30;3.00;;;4.40;99.90;;;;;;5072874;28;20209;-83
2022/01/20 07:31:25;;;;;;;2.70;2.50;;;4.40;99.90;;;;;;5073373;28;20209;-83
2022/01/20 07:33:58;;;;;;;3.15;2.85;;;4.30;99.90;;;;;;5073610;28;20197;-84
2022/01/20 07:36:26;;;;;;;3.35;2.65;;;4.40;99.90;;;;;;5073015;28;20249;-83
2022/01/20 07:38:55;;;;;;;2.63;2.40;;;4.30;99.90;;;;;;5072518;28;20236;-83
2022/01/20 07:41:23;;;;;;;2.83;2.63;;;4.30;99.90;;;;;;5073345;28;20255;-83
2022/01/20 07:43:51;;;;;;;2.30;2.10;;;4.30;99.90;;;;;;5073248;28;20223;-84
2022/01/20 07:46:25;;;;;;;2.72;2.47;;;4.40;99.90;;;;;;5073438;28;20208;-83
2022/01/20 07:49:29;;;;;;;2.65;2.45;;;4.40;99.90;;;;;;5072672;28;20201;-83
2022/01/20 07:51:58;;;;;;;2.47;2.30;;;4.40;99.90;;;;;;5039260;28;20229;-87
2022/01/20 07:54:27;;;;;;;2.33;2.13;;;4.40;99.90;;;;;;5048854;28;20221;-83
2022/01/20 07:56:55;;;;;;;6.38;2.15;;;4.40;99.90;;;;;;5061284;28;20192;-84
2022/01/20 07:59:24;;;;;;;1.60;1.50;;;4.40;99.90;;;;;;5072795;28;20347;-84
2022/01/20 08:01:53;;;;;;;2.45;2.25;;;4.40;99.90;;;;;;5072589;28;20205;-83
2022/01/20 08:04:21;;;;;;;2.33;2.13;;;4.50;99.90;;;;;;5071660;28;20217;-82
2022/01/20 08:06:51;;;;;;;2.13;2.00;;;4.40;99.90;;;;;;5071342;28;20200;-84
2022/01/20 08:09:22;;;;;;;2.20;2.00;;;4.40;99.90;;;;;;5072537;28;20258;-84
2022/01/20 08:12:11;;;;;;;1.90;1.80;;;4.50;99.90;;;;;;5072613;28;20205;-84
2022/01/20 08:14:40;;;;;;;2.20;1.90;;;4.50;99.90;;;;;;5071387;28;20274;-83
2022/01/20 08:17:08;;;;;;;1.75;1.65;;;4.50;99.90;;;;;;5072578;28;20197;-83
2022/01/20 08:19:36;;;;;;;3.28;2.13;;;4.50;99.90;;;;;;5072242;28;20236;-82
2022/01/20 08:22:06;;;;;;;2.33;2.13;;;4.50;99.90;;;;;;5072168;28;20207;-84
2022/01/20 08:24:55;;;;;;;2.10;2.00;;;4.50;99.90;;;;;;5072311;28;20263;-83
2022/01/20 08:27:23;;;;;;;2.30;2.10;;;4.60;99.90;;;;;;5072108;28;20188;-84
2022/01/20 08:29:52;;;;;;;2.47;2.28;;;4.50;99.90;;;;;;5071995;28;20201;-84
2022/01/20 08:32:20;;;;;;;1.70;1.60;;;4.60;99.90;;;;;;5072396;28;20200;-84
2022/01/20 08:34:49;;;;;;;2.47;2.28;;;4.50;99.90;;;;;;5072671;28;20221;-84
2022/01/20 08:37:19;;;;;;;2.45;1.70;;;4.50;99.90;;;;;;5072238;28;20274;-84
2022/01/20 08:39:48;;;;;;;2.00;1.90;;;4.60;99.90;;;;;;5071581;28;20254;-90
2022/01/20 08:42:16;;;;;;;2.35;2.15;;;4.60;99.90;;;;;;5072381;28;20254;-85
2022/01/20 08:44:46;;;;;;;2.22;2.03;;;4.50;99.90;;;;;;5070576;28;20251;-84
2022/01/20 08:47:17;;;;;;;2.25;2.05;;;4.50;99.90;;;;;;5071442;28;20259;-84
2022/01/20 08:49:48;;;;;;;1.70;1.60;;;4.50;99.90;;;;;;5073285;28;20284;-84
2022/01/20 08:52:18;;;;;;;1.58;1.38;;;4.50;99.90;;;;;;5071883;28;20228;-84
2022/01/20 08:54:47;;;;;;;1.63;1.52;;;4.50;99.90;;;;;;5071718;28;20259;-84
2022/01/20 08:57:15;;;;;;;2.60;2.30;;;4.40;99.90;;;;;;5071389;28;20233;-84
2022/01/20 08:59:44;;;;;;;1.77;1.67;;;4.40;99.90;;;;;;5072243;28;20292;-85
2022/01/20 09:02:13;;;;;;;1.73;1.63;;;4.40;99.90;;;;;;5071361;28;20201;-86
2022/01/20 09:04:41;;;;;;;1.85;1.75;;;4.40;99.90;;;;;;5071916;28;20229;-86
2022/01/20 09:07:10;;;;;;;1.70;1.60;;;4.40;99.90;;;;;;5071873;28;20197;-86
2022/01/20 09:09:42;;;;;;;2.40;2.20;;;4.40;99.90;;;;;;5071229;28;20221;-86
2022/01/20 09:15:27;;;;;;;2.30;2.08;;;4.40;99.90;;;;;;5071818;28;20263;-86
2022/01/20 09:15:28;;;;;;;2.67;2.47;;;4.40;99.90;;;;;;5070930;28;20241;-86
2022/01/20 09:17:59;;;;;;;2.05;1.90;;;4.30;99.90;;;;;;5064699;28;20202;-86
2022/01/20 09:20:28;;;;;;;2.30;2.10;;;4.20;99.90;;;;;;5069787;28;20265;-86
2022/01/20 09:22:58;;;;;;;2.65;2.20;;;4.20;99.90;;;;;;5071470;28;20244;-86
2022/01/20 09:25:28;;;;;;;1.80;1.70;;;4.20;99.90;;;;;;5071459;28;20308;-86
2022/01/20 09:27:57;;;;;;;2.08;1.90;;;4.20;99.90;;;;;;5071719;28;20205;-86
2022/01/20 09:30:26;;;;;;;2.53;2.10;;;4.20;99.90;;;;;;5070458;28;20300;-86
2022/01/20 09:33:01;;;;;;;1.65;1.55;;;4.20;99.90;;;;;;5062536;28;20212;-86
2022/01/20 09:35:32;;;;;;;2.40;2.20;;;4.30;99.90;;;;;;5070553;28;20278;-85
2022/01/20 09:38:02;;;;;;;2.03;1.92;;;4.40;99.90;;;;;;5071285;28;20197;-85
2022/01/20 09:40:36;;;;;;;2.42;2.22;;;4.50;99.90;;;;;;5071276;28;20209;-85
2022/01/20 09:43:05;;;;;;;1.65;1.55;;;4.60;99.90;;;;;;5071079;28;20224;-85
2022/01/20 09:45:34;;;;;;;2.25;1.90;;;4.80;99.90;;;;;;5071236;28;20312;-84
2022/01/20 09:48:03;;;;;;;1.70;1.60;;;4.80;99.90;;;;;;5071209;28;20284;-85
2022/01/20 09:50:31;;;;;;;1.30;1.20;;;4.90;99.90;;;;;;5069707;28;20201;-85
2022/01/20 09:53:01;;;;;;;2.30;2.10;;;5.00;99.90;;;;;;5071118;28;20205;-84
2022/01/20 09:55:30;;;;;;;2.08;1.85;;;5.00;99.90;;;;;;5071380;28;20256;-85
2022/01/20 09:58:00;;;;;;;1.85;1.73;;;5.00;99.90;;;;;;5071308;28;20270;-85
2022/01/20 10:00:28;;;;;;;1.70;1.60;;;5.00;99.90;;;;;;5073352;28;20201;-84
2022/01/20 10:03:00;;;;;;;2.05;1.85;;;5.00;99.90;;;;;;5075062;28;20205;-84
2022/01/20 10:05:34;;;;;;;2.05;1.85;;;5.00;99.90;;;;;;5075516;28;20252;-84
2022/01/20 10:08:07;;;;;;;1.63;1.35;;;5.10;99.90;;;;;;5074959;28;20199;-84
2022/01/20 10:10:45;;;;;;;1.67;1.58;;;5.10;99.90;;;;;;5074635;28;20280;-84
2022/01/20 10:13:17;;;;;;;1.95;1.75;;;5.10;99.90;;;;;;5074374;28;20303;-85
2022/01/20 10:16:00;;;;;;;1.42;1.40;;;5.10;99.90;;;;;;5074649;28;20303;-84
2022/01/20 10:18:29;;;;;;;1.50;1.40;;;5.10;99.90;;;;;;5074346;28;20283;-84
2022/01/20 10:21:00;;;;;;;1.30;1.25;;;5.20;99.90;;;;;;5073727;28;20270;-84
2022/01/20 10:23:35;;;;;;;2.35;1.88;;;5.20;99.90;;;;;;5074273;28;20266;-85
2022/01/20 10:26:12;;;;;;;2.15;2.05;;;5.10;99.90;;;;;;5073316;28;20231;-85
2022/01/20 10:28:55;;;;;;;1.88;1.77;;;5.10;99.90;;;;;;5071017;28;20268;-85
2022/01/20 10:31:39;;;;;;;2.08;1.63;;;5.00;99.90;;;;;;5070779;28;20201;-84
2022/01/20 10:34:18;;;;;;;2.05;1.85;;;5.10;99.90;;;;;;5064616;28;20205;-84
2022/01/20 10:36:54;;;;;;;2.38;2.22;;;5.10;99.90;;;;;;5073720;28;20213;-84
2022/01/20 10:39:29;;;;;;;1.70;1.60;;;5.20;99.90;;;;;;5073734;28;20275;-84
2022/01/20 10:42:00;;;;;;;1.90;1.67;;;5.10;99.90;;;;;;5073604;28;20251;-85
2022/01/20 10:44:42;;;;;;;1.30;1.30;;;5.30;99.90;;;;;;5074103;28;20240;-85
2022/01/20 10:47:24;;;;;;;1.90;1.80;;;5.70;99.90;;;;;;5073828;28;20206;-85
2022/01/20 10:49:52;;;;;;;2.55;2.08;;;6.20;99.90;;;;;;5074008;28;20265;-85
2022/01/20 10:52:22;;;;;;;1.80;1.70;;;6.60;99.90;;;;;;5054310;28;20204;-85
2022/01/20 10:54:52;;;;;;;1.63;1.52;;;6.40;99.90;;;;;;5065549;28;20228;-85
2022/01/20 10:57:27;;;;;;;1.20;1.20;;;6.20;99.90;;;;;;5073980;28;20349;-85
2022/01/20 10:59:59;;;;;;;1.73;1.63;;;5.80;99.90;;;;;;5072538;28;20228;-85
2022/01/20 11:02:29;;;;;;;2.10;1.75;;;6.10;99.90;;;;;;5073535;28;20198;-85
2022/01/20 11:04:58;;;;;;;2.03;1.83;;;6.60;99.90;;;;;;5073517;28;20252;-84
2022/01/20 11:07:28;;;;;;;2.75;2.00;;;6.90;99.90;;;;;;5072239;28;20198;-84
2022/01/20 11:10:01;;;;;;;1.40;1.30;;;7.10;99.90;;;;;;5072369;28;20257;-84
2022/01/20 11:12:30;;;;;;;2.17;1.98;;;7.10;99.90;;;;;;5073140;28;20205;-85
2022/01/20 11:15:09;;;;;;;1.17;1.15;;;7.50;99.90;;;;;;5073972;28;20308;-85
2022/01/20 11:17:40;;;;;;;2.13;1.83;;;7.60;99.90;;;;;;5073143;28;20309;-85
2022/01/20 11:20:11;;;;;;;2.00;1.90;;;7.70;99.90;;;;;;5073162;28;20217;-85
2022/01/20 11:22:51;;;;;;;1.20;1.20;;;7.50;99.90;;;;;;5072204;28;20264;-84
2022/01/20 11:25:22;;;;;;;1.58;1.45;;;6.90;99.90;;;;;;5071026;28;20217;-84
2022/01/20 11:28:03;;;;;;;1.77;1.67;;;6.40;99.90;;;;;;5074255;28;20201;-84
2022/01/20 11:30:35;;;;;;;1.92;1.55;;;6.40;99.90;;;;;;5073460;28;20193;-84
2022/01/20 11:33:06;;;;;;;1.48;1.42;;;6.70;99.90;;;;;;5076839;28;20197;-84
2022/01/20 11:35:43;;;;;;;2.70;2.05;;;6.90;99.90;;;;;;5073519;28;20250;-85
2022/01/20 11:38:13;;;;;;;2.15;1.58;;;7.30;99.90;;;;;;5076426;28;20295;-85
2022/01/20 11:40:55;;;;;;;2.40;1.90;;;7.50;99.90;;;;;;5061704;28;20238;-84
2022/01/20 11:43:35;;;;;;;1.80;1.70;;;8.00;99.90;;;;;;5054178;28;20248;-84
2022/01/20 11:46:13;;;;;;;1.80;1.70;;;8.10;99.90;;;;;;5071316;28;20220;-85
2022/01/20 11:48:57;;;;;;;1.50;1.40;;;8.30;99.90;;;;;;5073435;28;20247;-85
2022/01/20 11:51:28;;;;;;;1.17;1.17;;;8.10;99.90;;;;;;5073901;28;20219;-85
2022/01/20 11:54:29;;;;;;;1.63;1.52;;;8.20;99.90;;;;;;5073087;28;20205;-85
2022/01/20 11:57:09;;;;;;;2.90;2.13;;;8.50;99.90;;;;;;5072206;28;20269;-84
2022/01/20 11:59:41;;;;;;;3.15;1.58;;;8.50;99.90;;;;;;5072204;28;20216;-84
2022/01/20 12:02:23;;;;;;;1.98;1.70;;;8.80;99.90;;;;;;5073467;28;20223;-84
2022/01/20 12:04:52;;;;;;;2.88;1.33;;;9.10;99.90;;;;;;5072747;28;20242;-85
2022/01/20 12:07:25;;;;;;;1.88;1.77;;;8.90;99.90;;;;;;5073747;28;20216;-85
2022/01/20 12:10:06;;;;;;;3.10;1.73;;;8.30;99.90;;;;;;5072467;28;20220;-84
2022/01/20 12:12:34;;;;;;;1.77;1.52;;;8.10;99.90;;;;;;5072649;28;20270;-84
2022/01/20 12:15:11;;;;;;;16.40;2.45;;;7.90;99.90;;;;;;5073674;28;20221;-84
2022/01/20 12:17:42;;;;;;;1.20;1.20;;;7.90;99.90;;;;;;5073139;28;20276;-84
2022/01/20 12:20:12;;;;;;;1.67;1.58;;;8.30;99.90;;;;;;5073662;28;20205;-85
2022/01/20 12:22:42;;;;;;;1.92;1.80;;;8.50;99.90;;;;;;5072492;28;20276;-85
2022/01/20 12:25:17;;;;;;;2.00;1.70;;;8.70;99.90;;;;;;5073528;28;20310;-84
2022/01/20 12:27:46;;;;;;;3.22;1.40;;;8.80;99.90;;;;;;5073279;28;20201;-84
2022/01/20 12:30:21;;;;;;;2.63;1.70;;;9.10;99.90;;;;;;5073068;28;20285;-84
2022/01/20 12:32:59;;;;;;;1.33;1.23;;;9.00;99.90;;;;;;5073426;28;20276;-84
2022/01/20 12:35:41;;;;;;;1.40;1.30;;;9.10;99.90;;;;;;5073206;28;20275;-84
2022/01/20 12:38:23;;;;;;;1.30;1.20;;;9.10;99.90;;;;;;5073039;28;20299;-84
2022/01/20 12:41:03;;;;;;;2.33;2.03;;;9.20;99.90;;;;;;5073030;28;20284;-85
2022/01/20 12:43:41;;;;;;;6.60;1.45;;;9.30;99.90;;;;;;5071916;28;20284;-85
2022/01/20 12:46:12;;;;;;;1.45;1.35;;;9.10;99.90;;;;;;5072855;28;20229;-85
2022/01/20 12:48:54;;;;;;;1.60;1.50;;;9.00;99.90;;;;;;5072287;28;20266;-84
2022/01/20 12:51:31;;;;;;;2.15;1.67;;;8.60;99.90;;;;;;5072487;28;20228;-85
2022/01/20 12:54:06;;;;;;;2.90;1.80;;;7.90;99.90;;;;;;5072066;28;20200;-82
2022/01/20 12:56:36;;;;;;;2.65;1.80;;;7.50;99.90;;;;;;5071083;28;20283;-84
2022/01/20 12:59:06;;;;;;;9.43;2.05;;;7.10;99.90;;;;;;5071188;28;20225;-84
2022/01/20 13:01:56;;;;;;;1.70;1.60;;;6.90;99.90;;;;;;5068479;28;20198;-83
2022/01/20 13:04:28;;;;;;;5.03;1.75;;;6.50;99.90;;;;;;5069550;28;20247;-83
2022/01/20 13:06:59;;;;;;;2.03;1.85;;;6.50;99.90;;;;;;5073028;28;20308;-84
2022/01/20 13:09:38;;;;;;;3.15;2.30;;;6.50;99.90;;;;;;5072258;28;20279;-83
2022/01/20 13:12:09;;;;;;;1.52;1.42;;;6.30;99.90;;;;;;5071957;28;20193;-83
2022/01/20 13:14:40;;;;;;;1.63;1.52;;;6.40;99.90;;;;;;5072447;28;20264;-83
2022/01/20 13:17:11;;;;;;;1.20;1.20;;;6.60;99.90;;;;;;5071571;28;20208;-84
2022/01/20 13:19:45;;;;;;;2.35;2.15;;;6.50;99.90;;;;;;5072042;28;20217;-83
2022/01/20 13:22:27;;;;;;;2.38;2.13;;;6.50;99.90;;;;;;5072340;28;20233;-83
2022/01/20 13:25:04;;;;;;;2.92;1.98;;;6.60;99.90;;;;;;5072774;28;20221;-84
2022/01/20 13:27:32;;;;;;;1.58;1.48;;;6.70;99.90;;;;;;5071297;28;20291;-84
2022/01/20 13:30:02;;;;;;;1.50;1.40;;;6.60;99.90;;;;;;5071880;28;20197;-83
2022/01/20 13:32:30;;;;;;;1.60;1.50;;;6.50;99.90;;;;;;5071456;28;20197;-84
2022/01/20 13:35:01;;;;;;;26.00;1.83;;;6.70;99.90;;;;;;5075865;28;20251;-83
2022/01/20 13:37:31;;;;;;;2.22;1.70;;;7.00;99.90;;;;;;5075630;28;20269;-83
2022/01/20 13:40:00;;;;;;;1.40;1.30;;;7.10;99.90;;;;;;5075517;28;20220;-83
2022/01/20 13:42:38;;;;;;;1.55;1.45;;;7.00;99.90;;;;;;5076161;28;20201;-83
2022/01/20 13:45:14;;;;;;;3.03;1.50;;;7.00;99.90;;;;;;5075920;28;20236;-83
2022/01/20 13:48:01;;;;;;;2.13;1.92;;;6.90;99.90;;;;;;5076461;28;20217;-83
2022/01/20 13:50:33;;;;;;;1.73;1.63;;;6.90;99.90;;;;;;5075697;28;20239;-84
2022/01/20 13:53:11;;;;;;;1.40;1.30;;;7.10;99.90;;;;;;5076021;28;20204;-83
2022/01/20 13:55:41;;;;;;;3.30;1.80;;;7.30;99.90;;;;;;5073674;28;20296;-83
2022/01/20 13:58:09;;;;;;;2.58;1.38;;;7.20;99.90;;;;;;5075935;28;20216;-83
2022/01/20 14:00:39;;;;;;;1.95;1.55;;;7.00;99.90;;;;;;5075470;28;20280;-83
2022/01/20 14:03:08;;;;;;;1.35;1.30;;;7.00;99.90;;;;;;5076143;28;20263;-83